Standort: A- 4920 Schildorn, St. Kollmann 6
Position: Ost 1327'49" Nord 4807'14" 563 m Seehhe
Werte der letzten 24 Stunden
Wetterdaten: aktuell Donnerstag, 17.01.2019 22:40
Datum Zeit Temp. A. Feuchte A. Luftdruck Regen Richtung Richtung Sonnenschein UV Solar Windben
17.01.2019 22:40 4,0 C 75 % 1009,2 hPa 0,0 l/m SW 233 0 min 0,0 UV-I 0 W/m 24,1 km/h
17.01.2019 21:40 3,9 C 77 % 1008,8 hPa 0,0 l/m SW 232 0 min 0,0 UV-I 0 W/m 22,5 km/h
17.01.2019 20:40 3,6 C 81 % 1008,5 hPa 0,0 l/m SW 216 0 min 0,0 UV-I 0 W/m 17,7 km/h
17.01.2019 19:40 3,1 C 83 % 1008,5 hPa 0,2 l/m S-SW 207 0 min 0,0 UV-I 0 W/m 14,5 km/h
17.01.2019 18:40 4,5 C 78 % 1008,3 hPa 0,0 l/m W-SW 255 0 min 0,0 UV-I 0 W/m 16,1 km/h
17.01.2019 17:40 5,7 C 72 % 1007,4 hPa 0,0 l/m W 272 0 min 0,0 UV-I 0 W/m 24,1 km/h
17.01.2019 16:40 6,7 C 68 % 1006,6 hPa 0,0 l/m W 263 1 min 0,0 UV-I 0 W/m 11,3 km/h
17.01.2019 15:40 7,5 C 60 % 1005,8 hPa 0,0 l/m W 279 40 min 0,0 UV-I 29 W/m 17,7 km/h
17.01.2019 14:40 9,1 C 49 % 1005,6 hPa 0,0 l/m W 279 60 min 0,5 UV-I 200 W/m 17,7 km/h
17.01.2019 13:40 9,5 C 51 % 1005,4 hPa 0,0 l/m SW 216 60 min 0,8 UV-I 288 W/m 0,0 km/h
17.01.2019 12:40 9,8 C 51 % 1005,9 hPa 0,0 l/m SW 232 60 min 1,0 UV-I 317 W/m 0,0 km/h
17.01.2019 11:40 7,7 C 57 % 1007,3 hPa 0,0 l/m S-SW 207 60 min 1,1 UV-I 322 W/m 8,0 km/h
17.01.2019 10:40 6,8 C 59 % 1008,2 hPa 0,0 l/m SW 221 60 min 0,8 UV-I 295 W/m 11,3 km/h
17.01.2019 09:40 5,6 C 66 % 1008,5 hPa 0,0 l/m W 261 27 min 0,0 UV-I 190 W/m 14,5 km/h
17.01.2019 08:40 3,1 C 72 % 1008,7 hPa 0,0 l/m SW 219 2 min 0,0 UV-I 25 W/m 19,3 km/h
17.01.2019 07:40 4,6 C 71 % 1008,7 hPa 0,0 l/m SW 217 0 min 0,0 UV-I 0 W/m 9,7 km/h
17.01.2019 06:40 5,1 C 64 % 1009,1 hPa 0,0 l/m W 259 0 min 0,0 UV-I 0 W/m 14,5 km/h
17.01.2019 05:40 6,2 C 56 % 1008,8 hPa 0,0 l/m W 280 0 min 0,0 UV-I 0 W/m 17,7 km/h
17.01.2019 04:40 5,4 C 53 % 1008,5 hPa 0,0 l/m SW 230 0 min 0,0 UV-I 0 W/m 12,9 km/h
17.01.2019 03:40 4,3 C 58 % 1008,4 hPa 0,0 l/m S-SW 210 0 min 0,0 UV-I 0 W/m 17,7 km/h
17.01.2019 02:40 5,7 C 53 % 1008,5 hPa 0,0 l/m SW 226 0 min 0,0 UV-I 0 W/m 14,5 km/h
17.01.2019 01:40 3,6 C 62 % 1008,6 hPa 0,0 l/m SW 219 0 min 0,0 UV-I 0 W/m 11,3 km/h
17.01.2019 00:40 3,7 C 64 % 1009,0 hPa 0,0 l/m W-SW 237 0 min 0,0 UV-I 0 W/m 8,0 km/h
16.01.2019 23:40 3,1 C 66 % 1009,5 hPa 0,0 l/m SW 236 0 min 0,0 UV-I 0 W/m 8,0 km/h
16.01.2019 23:00 3,3 C 66 % 1009,9 hPa 0,0 l/m SW 214 0 min 0,0 UV-I 0 W/m 12,9 km/h
_ Min-Zeit 08:32 14:44 13:29 - - - - - - 12:08
Minimum _ 2,9 C 47 % 1005,4 hPa - - - - - - 0,0 km/h
_ Max-Zeit 12:39 19:24 23:00 19:18 - - 08:03 12:11 12:15 18:02
Maximum _ 9,8 C 83 % 1009,9 hPa 0,2 l/m - - 1 min 1,3 UV-I 467 W/m 37,0 km/h
W
Durchschnitt _ 5,3 C 64 % 1008,1 hPa #0,2 l/m SW - #6:10 h 0,9 UV-I 193 W/m 14,5 km/h
Daten ab 1. Mai 2002 - die Jahresstatistiken sind aber falsch (grere Aufzeichnungslcken)